createdAt,value
2023-03-31T00:00:53.853Z,11.20
2023-03-31T00:04:04.515Z,11.20
2023-03-31T00:07:08.301Z,11.20
2023-03-31T00:10:18.428Z,11.10
2023-03-31T00:13:21.909Z,11.10
2023-03-31T00:16:26.760Z,11.10
2023-03-31T00:19:29.952Z,11.00
2023-03-31T00:22:33.211Z,11.00
2023-03-31T00:25:36.353Z,10.90
2023-03-31T00:28:39.534Z,10.90
2023-03-31T00:31:44.116Z,10.80
2023-03-31T00:34:47.742Z,10.80
2023-03-31T00:37:50.880Z,10.70
2023-03-31T00:40:54.061Z,10.70
2023-03-31T00:44:08.622Z,10.60
2023-03-31T00:47:16.773Z,10.60
2023-03-31T00:50:23.200Z,10.60
2023-03-31T00:53:31.202Z,10.50
2023-03-31T00:56:38.681Z,10.60
2023-03-31T00:59:45.418Z,10.60
2023-03-31T01:02:53.195Z,10.60
2023-03-31T01:05:58.877Z,10.60
2023-03-31T01:09:07.075Z,10.70
2023-03-31T01:12:12.045Z,10.70
2023-03-31T01:15:15.717Z,10.80
2023-03-31T01:18:22.239Z,10.80
2023-03-31T01:22:02.683Z,10.90
2023-03-31T01:25:38.846Z,10.90
2023-03-31T01:28:47.617Z,10.90
2023-03-31T01:32:37.463Z,10.80
2023-03-31T01:36:09.375Z,10.80
2023-03-31T01:40:01.692Z,10.70
2023-03-31T01:43:09.995Z,10.60
2023-03-31T01:46:21.093Z,10.60
2023-03-31T01:49:31.669Z,10.70
2023-03-31T01:52:42.440Z,10.60
2023-03-31T01:55:53.985Z,10.50
2023-03-31T01:59:03.059Z,10.50
2023-03-31T02:02:10.269Z,10.40
2023-03-31T02:05:17.114Z,10.40
2023-03-31T02:08:24.496Z,10.40
2023-03-31T02:11:32.004Z,10.30
2023-03-31T02:14:38.281Z,10.20
2023-03-31T02:17:45.972Z,10.10
2023-03-31T02:20:51.622Z,10.10
2023-03-31T02:23:54.840Z,10.00
2023-03-31T02:27:06.471Z,10.00
2023-03-31T02:30:11.016Z,9.90
2023-03-31T02:33:14.163Z,9.80
2023-03-31T02:36:18.417Z,9.80
2023-03-31T02:39:26.235Z,9.80
2023-03-31T02:42:30.944Z,9.70
2023-03-31T02:45:46.147Z,9.70
2023-03-31T02:48:52.604Z,9.70
2023-03-31T02:52:14.127Z,9.70
2023-03-31T02:55:25.045Z,9.60
2023-03-31T02:59:11.487Z,9.60
2023-03-31T03:02:20.123Z,9.60
2023-03-31T03:05:34.841Z,9.60
2023-03-31T03:08:55.523Z,9.50
2023-03-31T03:12:09.572Z,9.50
2023-03-31T03:15:18.134Z,9.40
2023-03-31T03:18:21.233Z,9.40
2023-03-31T03:21:24.522Z,9.30
2023-03-31T03:24:29.881Z,9.20
2023-03-31T03:27:33.498Z,9.20
2023-03-31T03:30:38.128Z,9.20
2023-03-31T03:33:41.336Z,9.20
2023-03-31T03:36:44.514Z,9.10
2023-03-31T03:39:47.715Z,9.00
2023-03-31T03:42:50.903Z,9.00
2023-03-31T03:45:55.668Z,9.00
2023-03-31T03:48:58.821Z,8.90
2023-03-31T03:52:02.026Z,8.90
2023-03-31T03:55:05.862Z,9.00
2023-03-31T03:58:09.066Z,9.00
2023-03-31T04:01:14.332Z,8.90
2023-03-31T04:04:17.443Z,8.90
2023-03-31T04:07:20.720Z,8.90
2023-03-31T04:10:24.006Z,8.80
2023-03-31T04:13:27.212Z,8.80
2023-03-31T04:16:32.421Z,8.70
2023-03-31T04:19:35.620Z,8.60
2023-03-31T04:22:41.669Z,8.50
2023-03-31T04:25:46.595Z,8.40
2023-03-31T04:28:50.804Z,8.40
2023-03-31T04:31:58.827Z,8.50
2023-03-31T04:35:03.750Z,8.40
2023-03-31T04:38:06.889Z,8.40
2023-03-31T04:41:10.043Z,8.40
2023-03-31T04:44:13.370Z,8.50
2023-03-31T04:47:17.873Z,8.50
2023-03-31T04:50:21.051Z,8.50
2023-03-31T04:53:24.492Z,8.60
2023-03-31T04:56:27.774Z,8.70
2023-03-31T04:59:30.871Z,8.60
2023-03-31T05:02:35.689Z,8.70
2023-03-31T05:05:38.970Z,8.80
2023-03-31T05:08:42.480Z,8.80
2023-03-31T05:11:45.637Z,8.80
2023-03-31T05:14:48.880Z,8.90
2023-03-31T05:17:53.592Z,8.90
2023-03-31T05:20:56.758Z,8.90
2023-03-31T05:23:59.997Z,8.90
2023-03-31T05:27:03.154Z,9.00
2023-03-31T05:30:08.231Z,9.00
2023-03-31T05:33:12.771Z,9.00
2023-03-31T05:36:17.897Z,9.10
2023-03-31T05:39:21.433Z,9.10
2023-03-31T05:42:24.750Z,9.20
2023-03-31T05:45:27.898Z,9.20
2023-03-31T05:48:32.524Z,9.30
2023-03-31T05:51:35.765Z,9.40
2023-03-31T05:54:39.016Z,9.40
2023-03-31T05:57:42.157Z,9.40
2023-03-31T06:00:45.386Z,9.50
2023-03-31T06:03:50.632Z,9.50
2023-03-31T06:06:54.162Z,9.50
2023-03-31T06:09:57.309Z,9.50
2023-03-31T06:13:00.569Z,9.60
2023-03-31T06:16:04.132Z,9.70
2023-03-31T06:19:09.101Z,9.80
2023-03-31T06:22:12.312Z,9.90
2023-03-31T06:25:15.501Z,9.90
2023-03-31T06:28:18.673Z,9.90
2023-03-31T06:31:23.895Z,10.00
2023-03-31T06:34:28.630Z,10.10
2023-03-31T06:37:31.806Z,10.20
2023-03-31T06:40:35.062Z,10.20
2023-03-31T06:43:38.326Z,10.40
2023-03-31T06:46:41.600Z,10.60
2023-03-31T06:49:46.284Z,10.80
2023-03-31T06:52:52.760Z,11.10
2023-03-31T06:55:56.254Z,11.40
2023-03-31T06:58:59.464Z,11.90
2023-03-31T07:02:02.718Z,12.50
2023-03-31T07:05:08.331Z,13.50
2023-03-31T07:08:11.465Z,14.10
2023-03-31T07:11:14.757Z,14.70
2023-03-31T07:14:18.182Z,16.00
2023-03-31T07:17:21.415Z,17.10
2023-03-31T07:20:25.913Z,17.90
2023-03-31T07:23:29.149Z,19.10
2023-03-31T07:26:32.351Z,20.70
2023-03-31T07:29:35.493Z,21.80
2023-03-31T07:32:41.192Z,23.40
2023-03-31T07:35:47.029Z,24.90
2023-03-31T07:38:54.845Z,25.10
2023-03-31T07:41:59.157Z,25.30
2023-03-31T07:45:02.569Z,25.30
2023-03-31T07:48:06.152Z,24.40
2023-03-31T07:51:10.726Z,23.40
2023-03-31T07:54:13.889Z,22.60
2023-03-31T07:57:19.564Z,22.50
2023-03-31T08:00:23.180Z,22.80
2023-03-31T08:03:26.574Z,23.90
2023-03-31T08:06:31.260Z,24.50
2023-03-31T08:09:34.408Z,24.10
2023-03-31T08:12:37.603Z,23.60
2023-03-31T08:15:40.886Z,23.20
2023-03-31T08:18:44.222Z,23.10
2023-03-31T08:21:48.933Z,22.30
2023-03-31T08:24:52.112Z,20.90
2023-03-31T08:27:56.124Z,20.10
2023-03-31T08:31:05.957Z,19.80
2023-03-31T08:34:09.304Z,19.00
2023-03-31T08:37:13.838Z,18.40
2023-03-31T08:40:22.234Z,18.40
2023-03-31T08:43:32.733Z,19.20
2023-03-31T08:46:36.847Z,19.80
2023-03-31T08:49:46.908Z,20.10
2023-03-31T08:52:57.858Z,20.50
2023-03-31T08:56:01.582Z,20.60
2023-03-31T08:59:05.256Z,20.80
2023-03-31T09:02:20.743Z,21.10
2023-03-31T09:05:57.250Z,21.70
2023-03-31T09:09:10.462Z,22.00
2023-03-31T09:12:18.937Z,22.40
2023-03-31T09:15:27.965Z,24.90
2023-03-31T09:18:35.594Z,27.90
2023-03-31T09:21:43.072Z,31.00
2023-03-31T09:24:59.984Z,33.90
2023-03-31T09:28:06.434Z,37.00
2023-03-31T09:31:16.075Z,39.50
2023-03-31T09:34:26.034Z,41.90
2023-03-31T09:37:32.842Z,42.70
2023-03-31T09:40:37.405Z,40.40
2023-03-31T09:43:42.225Z,39.70
2023-03-31T09:46:45.609Z,40.00
2023-03-31T09:49:53.638Z,39.70
2023-03-31T09:52:58.974Z,39.70
2023-03-31T09:56:06.366Z,38.70
2023-03-31T09:59:16.014Z,36.20
2023-03-31T10:02:37.656Z,35.20
2023-03-31T10:05:50.138Z,36.20
2023-03-31T10:08:57.705Z,34.00
2023-03-31T10:12:07.083Z,30.90
2023-03-31T10:15:21.732Z,28.40
2023-03-31T10:18:35.008Z,26.60
2023-03-31T10:21:39.396Z,24.90
2023-03-31T10:24:44.270Z,22.90
2023-03-31T10:27:52.838Z,21.70
2023-03-31T10:31:01.491Z,21.40
2023-03-31T10:34:08.496Z,21.00
2023-03-31T10:37:18.407Z,20.20
2023-03-31T10:40:24.638Z,19.40
2023-03-31T10:43:31.614Z,18.80
2023-03-31T10:46:44.321Z,18.50
2023-03-31T10:49:52.336Z,18.10
2023-03-31T10:53:04.261Z,17.90
2023-03-31T10:56:17.475Z,17.80
2023-03-31T10:59:40.518Z,17.70
2023-03-31T11:03:12.080Z,17.50
2023-03-31T11:06:23.436Z,17.60
2023-03-31T11:09:42.083Z,17.50
2023-03-31T11:12:52.553Z,17.50
2023-03-31T11:16:08.822Z,17.50
2023-03-31T11:19:22.812Z,17.70
2023-03-31T11:22:33.143Z,18.30
2023-03-31T11:25:41.275Z,19.00
2023-03-31T11:29:04.009Z,19.60
2023-03-31T11:32:36.480Z,20.00
2023-03-31T11:35:54.402Z,20.40
2023-03-31T11:39:13.629Z,20.80
2023-03-31T11:42:21.542Z,21.20
2023-03-31T11:45:29.636Z,21.50
2023-03-31T11:48:43.201Z,21.90
2023-03-31T11:51:53.209Z,22.20
2023-03-31T11:55:01.616Z,22.00
2023-03-31T11:58:11.614Z,22.00
2023-03-31T12:01:22.722Z,22.20
2023-03-31T12:04:35.992Z,22.50
2023-03-31T12:07:44.681Z,22.90
2023-03-31T12:10:53.318Z,23.30
2023-03-31T12:14:07.207Z,23.60
2023-03-31T12:17:13.596Z,23.80
2023-03-31T12:20:26.959Z,23.50
2023-03-31T12:23:32.564Z,21.80
2023-03-31T12:26:45.768Z,21.20
2023-03-31T12:29:55.880Z,20.90
2023-03-31T12:33:05.836Z,20.90
2023-03-31T12:36:25.387Z,20.90
2023-03-31T12:39:40.950Z,20.70
2023-03-31T12:43:08.100Z,20.50
2023-03-31T12:46:25.500Z,20.70
2023-03-31T12:49:42.433Z,20.20
2023-03-31T12:52:53.538Z,20.00
2023-03-31T12:55:58.885Z,20.00
2023-03-31T12:59:20.142Z,20.00
2023-03-31T13:02:26.312Z,20.10
2023-03-31T13:05:51.064Z,20.30
2023-03-31T13:08:57.409Z,20.40
2023-03-31T13:12:07.501Z,20.70
2023-03-31T13:15:15.598Z,20.60
2023-03-31T13:18:22.600Z,20.60
2023-03-31T13:21:26.344Z,20.50
2023-03-31T13:24:32.372Z,20.30
2023-03-31T13:27:35.722Z,19.80
2023-03-31T13:30:50.444Z,20.00
2023-03-31T13:33:58.104Z,20.40
2023-03-31T13:37:18.853Z,20.70
2023-03-31T13:41:06.778Z,20.60
2023-03-31T13:44:41.211Z,20.70
2023-03-31T13:48:11.505Z,20.30
2023-03-31T13:51:32.602Z,20.00
2023-03-31T13:55:20.682Z,19.50
2023-03-31T13:59:08.408Z,19.10
2023-03-31T14:03:00.835Z,19.00
2023-03-31T14:06:08.285Z,19.00
2023-03-31T14:09:18.719Z,18.90
2023-03-31T14:12:23.893Z,18.90
2023-03-31T14:15:27.221Z,18.80
2023-03-31T14:18:35.286Z,18.80
2023-03-31T14:21:44.828Z,18.60
2023-03-31T14:24:55.928Z,18.70
2023-03-31T14:28:08.578Z,18.70
2023-03-31T14:31:20.854Z,18.60
2023-03-31T14:34:53.944Z,18.50
2023-03-31T14:37:58.273Z,18.40
2023-03-31T14:41:02.027Z,18.40
2023-03-31T14:44:07.597Z,18.40
2023-03-31T14:47:16.030Z,18.70
2023-03-31T14:50:20.836Z,18.80
2023-03-31T14:53:26.496Z,18.90
2023-03-31T14:56:34.946Z,19.00
2023-03-31T14:59:39.682Z,18.80
2023-03-31T15:02:45.569Z,18.70
2023-03-31T15:05:50.587Z,18.60
2023-03-31T15:08:57.618Z,18.60
2023-03-31T15:12:03.073Z,18.50
2023-03-31T15:15:08.796Z,18.50
2023-03-31T15:18:13.926Z,18.50
2023-03-31T15:21:27.194Z,18.40
2023-03-31T15:24:30.783Z,18.20
2023-03-31T15:27:38.267Z,17.90
2023-03-31T15:30:41.761Z,18.00
2023-03-31T15:33:45.100Z,18.00
2023-03-31T15:36:49.864Z,17.90
2023-03-31T15:39:53.099Z,17.70
2023-03-31T15:43:07.060Z,17.70
2023-03-31T15:46:21.336Z,17.50
2023-03-31T15:49:26.490Z,17.30
2023-03-31T15:52:35.534Z,17.20
2023-03-31T15:58:54.165Z,17.20
2023-03-31T16:02:00.133Z,17.20
2023-03-31T16:05:10.421Z,17.10
2023-03-31T16:08:18.981Z,17.20
2023-03-31T16:11:26.822Z,17.20
2023-03-31T16:14:34.267Z,17.10
2023-03-31T16:17:43.160Z,16.90
2023-03-31T16:20:54.675Z,17.00
2023-03-31T16:24:00.764Z,17.00
2023-03-31T16:27:07.931Z,16.80
2023-03-31T16:30:15.483Z,16.70
2023-03-31T16:33:20.194Z,16.60
2023-03-31T16:36:24.405Z,16.60
2023-03-31T16:39:29.681Z,16.60
2023-03-31T16:42:33.076Z,16.60
2023-03-31T16:45:36.957Z,16.50
2023-03-31T16:48:40.352Z,16.50
2023-03-31T16:51:43.581Z,16.40
2023-03-31T16:54:48.968Z,16.30
2023-03-31T16:57:52.812Z,16.40
2023-03-31T17:00:56.785Z,16.40
2023-03-31T17:04:00.323Z,16.20
2023-03-31T17:07:03.856Z,15.80
2023-03-31T17:10:10.728Z,15.50
2023-03-31T17:13:14.906Z,15.00
2023-03-31T17:16:24.197Z,14.50
2023-03-31T17:19:36.365Z,14.10
2023-03-31T17:22:40.299Z,13.80
2023-03-31T17:25:50.449Z,13.60
2023-03-31T17:28:54.482Z,13.50
2023-03-31T17:31:58.104Z,13.40
2023-03-31T17:35:02.861Z,13.40
2023-03-31T17:38:06.661Z,13.30
2023-03-31T17:41:14.300Z,13.20
2023-03-31T17:44:18.253Z,13.20
2023-03-31T17:47:21.836Z,13.20
2023-03-31T17:50:25.562Z,13.10
2023-03-31T17:53:29.146Z,12.70
2023-03-31T17:56:35.182Z,12.20
2023-03-31T17:59:39.025Z,12.20
2023-03-31T18:02:43.704Z,12.30
2023-03-31T18:05:47.883Z,12.30
2023-03-31T18:08:51.332Z,12.40
2023-03-31T18:12:00.221Z,12.40
2023-03-31T18:15:06.255Z,12.50
2023-03-31T18:18:10.857Z,12.60
2023-03-31T18:21:16.533Z,12.60
2023-03-31T18:24:21.096Z,12.70
2023-03-31T18:27:26.986Z,12.70
2023-03-31T18:30:32.865Z,12.70
2023-03-31T18:33:37.355Z,12.70
2023-03-31T18:36:42.274Z,12.80
2023-03-31T18:39:46.512Z,12.80
2023-03-31T18:42:56.891Z,12.80
2023-03-31T18:46:01.993Z,12.80
2023-03-31T18:49:06.447Z,12.70
2023-03-31T18:52:11.427Z,12.60
2023-03-31T18:55:15.507Z,12.40
2023-03-31T18:58:22.294Z,12.20
2023-03-31T19:01:27.335Z,12.10
2023-03-31T19:04:32.118Z,12.00
2023-03-31T19:07:36.775Z,12.00
2023-03-31T19:10:41.599Z,11.80
2023-03-31T19:13:48.147Z,11.90
2023-03-31T19:16:53.042Z,11.90
2023-03-31T19:19:58.060Z,12.00
2023-03-31T19:23:02.654Z,12.00
2023-03-31T19:26:07.388Z,11.90
2023-03-31T19:29:15.461Z,11.90
2023-03-31T19:32:19.748Z,11.90
2023-03-31T19:35:28.326Z,11.90
2023-03-31T19:38:35.447Z,11.90
2023-03-31T19:41:39.987Z,12.00
2023-03-31T19:44:47.953Z,12.10
2023-03-31T19:47:52.320Z,12.10
2023-03-31T19:51:01.533Z,12.20
2023-03-31T19:54:06.731Z,12.20
2023-03-31T19:57:11.611Z,12.20
2023-03-31T20:00:20.117Z,12.30
2023-03-31T20:03:26.429Z,12.30
2023-03-31T20:06:36.356Z,12.30
2023-03-31T20:09:42.917Z,12.30
2023-03-31T20:12:47.902Z,12.20
2023-03-31T20:16:00.945Z,12.20
2023-03-31T20:19:07.455Z,12.20
2023-03-31T20:22:12.541Z,12.20
2023-03-31T20:25:17.044Z,12.20
2023-03-31T20:28:22.106Z,12.20
2023-03-31T20:31:29.347Z,12.20
2023-03-31T20:34:34.578Z,12.20
2023-03-31T20:37:38.129Z,12.20
2023-03-31T20:40:41.751Z,12.20
2023-03-31T20:43:45.739Z,12.20
2023-03-31T20:46:51.239Z,12.10
2023-03-31T20:49:54.486Z,12.10
2023-03-31T20:52:59.122Z,12.00
2023-03-31T20:56:03.451Z,12.00
2023-03-31T20:59:08.911Z,12.00
2023-03-31T21:02:14.243Z,12.00
2023-03-31T21:05:18.136Z,12.00
2023-03-31T21:08:21.622Z,12.00
2023-03-31T21:11:25.649Z,12.00
2023-03-31T21:14:29.618Z,12.00
2023-03-31T21:17:34.195Z,12.00
2023-03-31T21:20:37.434Z,11.90
2023-03-31T21:23:41.141Z,11.90
2023-03-31T21:26:44.330Z,11.80
2023-03-31T21:29:47.511Z,11.80
2023-03-31T21:32:52.945Z,11.80
2023-03-31T21:35:56.719Z,11.70
2023-03-31T21:38:59.983Z,11.70
2023-03-31T21:42:03.192Z,11.60
2023-03-31T21:45:07.470Z,11.60
2023-03-31T21:48:12.646Z,11.50
2023-03-31T21:51:16.171Z,11.50
2023-03-31T21:54:19.332Z,11.50
2023-03-31T21:57:22.725Z,11.50
2023-03-31T22:00:26.352Z,11.50
2023-03-31T22:03:34.374Z,11.50
2023-03-31T22:06:39.274Z,11.60
2023-03-31T22:09:42.460Z,11.60
2023-03-31T22:12:46.074Z,11.60
2023-03-31T22:15:49.736Z,11.50
2023-03-31T22:18:55.910Z,11.50
2023-03-31T22:21:59.492Z,11.50
2023-03-31T22:25:02.698Z,11.60
2023-03-31T22:28:07.355Z,11.50
2023-03-31T22:31:10.686Z,11.50
2023-03-31T22:34:16.004Z,11.50
2023-03-31T22:37:19.274Z,11.50
2023-03-31T22:40:22.436Z,11.40
2023-03-31T22:43:25.621Z,11.40
2023-03-31T22:46:28.923Z,11.40
2023-03-31T22:49:33.826Z,11.40
2023-03-31T22:52:37.033Z,11.40
2023-03-31T22:55:43.216Z,11.40
2023-03-31T22:58:58.315Z,11.30
2023-03-31T23:02:01.815Z,11.30
2023-03-31T23:05:07.227Z,11.30
2023-03-31T23:08:10.392Z,11.30
2023-03-31T23:11:14.687Z,11.30
2023-03-31T23:14:18.149Z,11.30
2023-03-31T23:17:21.485Z,11.30
2023-03-31T23:20:25.997Z,11.30
2023-03-31T23:23:29.214Z,11.30
2023-03-31T23:26:34.171Z,11.30
2023-03-31T23:29:37.527Z,11.30
2023-03-31T23:32:40.681Z,11.20
2023-03-31T23:35:45.387Z,11.20
2023-03-31T23:38:49.097Z,11.30
2023-03-31T23:41:52.322Z,11.20
2023-03-31T23:44:55.451Z,11.20
2023-03-31T23:47:58.835Z,11.30
2023-03-31T23:51:03.497Z,11.20
2023-03-31T23:54:06.721Z,11.20
2023-03-31T23:57:09.921Z,11.20
